createdAt,value
2023-04-02T00:00:10.905Z,99120.45
2023-04-02T00:03:12.452Z,99125.66
2023-04-02T00:05:55.256Z,99130.34
2023-04-02T00:08:45.913Z,99132.16
2023-04-02T00:11:16.392Z,99139.13
2023-04-02T00:13:49.613Z,99141.15
2023-04-02T00:16:42.848Z,99146.80
2023-04-02T00:19:26.413Z,99147.56
2023-04-02T00:22:22.905Z,99153.45
2023-04-02T00:24:57.584Z,99160.73
2023-04-02T00:27:28.982Z,99164.60
2023-04-02T00:29:59.493Z,99166.23
2023-04-02T00:32:33.099Z,99170.27
2023-04-02T00:35:11.123Z,99173.36
2023-04-02T00:37:43.544Z,99178.61
2023-04-02T00:40:25.832Z,99182.88
2023-04-02T00:43:04.896Z,99185.52
2023-04-02T00:45:38.206Z,99182.58
2023-04-02T00:48:50.503Z,99191.20
2023-04-02T00:51:48.207Z,99191.59
2023-04-02T00:54:22.155Z,99190.02
2023-04-02T00:56:56.616Z,99191.20
2023-04-02T00:59:40.121Z,99194.98
2023-04-02T01:02:15.158Z,99198.15
2023-04-02T01:05:23.768Z,99204.37
2023-04-02T01:08:41.426Z,99200.35
2023-04-02T01:11:31.080Z,99204.55
2023-04-02T01:15:07.402Z,99209.81
2023-04-02T01:18:06.117Z,99212.99
2023-04-02T01:20:55.841Z,99215.66
2023-04-02T01:24:33.433Z,99220.83
2023-04-02T01:27:32.715Z,99226.46
2023-04-02T01:30:05.341Z,99229.48
2023-04-02T01:32:40.270Z,99234.55
2023-04-02T01:35:35.738Z,99234.88
2023-04-02T01:38:47.274Z,99238.86
2023-04-02T01:41:35.803Z,99250.44
2023-04-02T01:44:17.531Z,99249.95
2023-04-02T01:46:59.686Z,99260.21
2023-04-02T01:49:33.019Z,99264.91
2023-04-02T01:52:09.593Z,99268.21
2023-04-02T01:54:53.657Z,99273.59
2023-04-02T01:57:29.765Z,99272.77
2023-04-02T02:00:17.608Z,99280.73
2023-04-02T02:02:52.471Z,99280.23
2023-04-02T02:05:34.542Z,99284.35
2023-04-02T02:08:05.683Z,99285.20
2023-04-02T02:10:56.042Z,99289.91
2023-04-02T02:13:31.546Z,99293.20
2023-04-02T02:16:07.108Z,99295.31
2023-04-02T02:18:47.823Z,99303.45
2023-04-02T02:21:46.684Z,99305.98
2023-04-02T02:24:28.924Z,99308.23
2023-04-02T02:27:24.615Z,99315.70
2023-04-02T02:30:01.937Z,99321.64
2023-04-02T02:33:02.154Z,99325.95
2023-04-02T02:35:37.741Z,99330.75
2023-04-02T02:38:31.648Z,99336.16
2023-04-02T02:41:04.844Z,99339.84
2023-04-02T02:43:40.679Z,99348.86
2023-04-02T02:46:33.491Z,99352.91
2023-04-02T02:49:09.269Z,99354.64
2023-04-02T02:52:02.504Z,99355.67
2023-04-02T02:54:36.577Z,99356.91
2023-04-02T02:57:14.350Z,99362.41
2023-04-02T02:59:49.855Z,99365.19
2023-04-02T03:02:50.488Z,99369.34
2023-04-02T03:05:28.443Z,99375.40
2023-04-02T03:08:03.647Z,99380.79
2023-04-02T03:11:18.445Z,99382.52
2023-04-02T03:14:30.626Z,99389.77
2023-04-02T03:17:38.478Z,99395.11
2023-04-02T03:20:40.547Z,99399.69
2023-04-02T03:23:30.684Z,99403.30
2023-04-02T03:26:12.574Z,99402.43
2023-04-02T03:29:03.985Z,99408.67
2023-04-02T03:32:08.278Z,99410.43
2023-04-02T03:34:54.992Z,99411.59
2023-04-02T03:37:50.617Z,99414.52
2023-04-02T03:40:45.123Z,99419.43
2023-04-02T03:43:29.270Z,99422.36
2023-04-02T03:46:22.402Z,99427.55
2023-04-02T03:49:12.244Z,99439.15
2023-04-02T03:52:17.588Z,99438.90
2023-04-02T03:55:04.030Z,99449.11
2023-04-02T03:58:07.306Z,99455.14
2023-04-02T04:00:57.118Z,99460.33
2023-04-02T04:03:36.129Z,99465.02
2023-04-02T04:06:25.117Z,99472.94
2023-04-02T04:09:38.833Z,99477.70
2023-04-02T04:12:48.472Z,99480.98
2023-04-02T04:16:39.274Z,99485.79
2023-04-02T04:19:52.797Z,99490.29
2023-04-02T04:22:50.193Z,99494.85
2023-04-02T04:28:44.441Z,99506.14
2023-04-02T04:31:42.951Z,99510.61
2023-04-02T04:35:08.635Z,99511.46
2023-04-02T04:38:37.480Z,99520.33
2023-04-02T04:42:12.542Z,99529.88
2023-04-02T04:45:32.655Z,99537.30
2023-04-02T04:48:41.253Z,99541.44
2023-04-02T04:51:58.059Z,99546.85
2023-04-02T04:55:04.557Z,99558.74
2023-04-02T04:58:36.694Z,99561.56
2023-04-02T05:01:44.948Z,99564.39
2023-04-02T05:04:44.001Z,99572.34
2023-04-02T05:07:48.750Z,99575.99
2023-04-02T05:10:59.257Z,99578.42
2023-04-02T05:14:17.131Z,99584.45
2023-04-02T05:17:43.774Z,99593.50
2023-04-02T05:20:48.682Z,99598.38
2023-04-02T05:23:40.509Z,99604.48
2023-04-02T05:26:33.978Z,99608.25
2023-04-02T05:29:34.001Z,99610.69
2023-04-02T05:32:44.792Z,99615.70
2023-04-02T05:35:48.825Z,99618.95
2023-04-02T05:38:33.546Z,99621.36
2023-04-02T05:41:40.156Z,99626.19
2023-04-02T05:44:42.095Z,99633.98
2023-04-02T05:47:28.758Z,99635.86
2023-04-02T05:50:22.882Z,99641.40
2023-04-02T05:53:04.225Z,99639.14
2023-04-02T05:55:45.353Z,99647.59
2023-04-02T05:58:37.554Z,99646.05
2023-04-02T06:01:39.870Z,99650.38
2023-04-02T06:04:34.837Z,99654.17
2023-04-02T06:07:16.102Z,99661.42
2023-04-02T06:09:53.458Z,99664.86
2023-04-02T06:12:35.701Z,99666.96
2023-04-02T06:15:06.946Z,99667.48
2023-04-02T06:18:01.230Z,99672.48
2023-04-02T06:20:29.849Z,99676.94
2023-04-02T06:23:18.772Z,99681.39
2023-04-02T06:25:54.893Z,99684.96
2023-04-02T06:28:41.280Z,99690.49
2023-04-02T06:31:23.562Z,99692.58
2023-04-02T06:33:55.180Z,99695.86
2023-04-02T06:36:30.130Z,99698.77
2023-04-02T06:39:07.005Z,99698.80
2023-04-02T06:41:35.607Z,99705.80
2023-04-02T06:44:15.240Z,99708.58
2023-04-02T06:46:48.417Z,99712.16
2023-04-02T06:49:31.252Z,99721.30
2023-04-02T06:52:01.598Z,99726.98
2023-04-02T06:54:30.542Z,99730.79
2023-04-02T06:56:59.006Z,99735.80
2023-04-02T06:59:27.597Z,99740.10
2023-04-02T07:02:06.906Z,99741.87
2023-04-02T07:04:35.597Z,99748.07
2023-04-02T07:07:04.357Z,99750.98
2023-04-02T07:09:33.172Z,99750.27
2023-04-02T07:12:01.970Z,99756.25
2023-04-02T07:14:30.323Z,99755.36
2023-04-02T07:16:59.023Z,99762.26
2023-04-02T07:19:27.614Z,99765.73
2023-04-02T07:21:56.152Z,99769.89
2023-04-02T07:24:24.330Z,99775.60
2023-04-02T07:26:52.838Z,99780.30
2023-04-02T07:29:21.194Z,99783.55
2023-04-02T07:31:49.488Z,99790.59
2023-04-02T07:34:17.912Z,99793.14
2023-04-02T07:36:49.719Z,99800.36
2023-04-02T07:39:21.858Z,99801.00
2023-04-02T07:41:56.551Z,99803.05
2023-04-02T07:44:24.885Z,99809.44
2023-04-02T07:46:53.195Z,99816.86
2023-04-02T07:49:21.802Z,99820.50
2023-04-02T07:51:52.907Z,99823.44
2023-04-02T07:54:21.436Z,99827.98
2023-04-02T07:56:50.239Z,99836.29
2023-04-02T07:59:18.850Z,99835.73
2023-04-02T08:01:48.548Z,99842.30
2023-04-02T08:04:22.083Z,99842.80
2023-04-02T08:07:00.227Z,99850.02
2023-04-02T08:09:28.786Z,99856.27
2023-04-02T08:11:57.441Z,99859.95
2023-04-02T08:14:26.086Z,99865.19
2023-04-02T08:16:56.455Z,99864.48
2023-04-02T08:19:24.987Z,99874.39
2023-04-02T08:21:54.092Z,99876.19
2023-04-02T08:24:23.115Z,99878.48
2023-04-02T08:26:54.596Z,99886.03
2023-04-02T08:29:22.916Z,99890.30
2023-04-02T08:31:51.274Z,99896.01
2023-04-02T08:34:19.538Z,99900.35
2023-04-02T08:36:48.189Z,99908.86
2023-04-02T08:39:16.518Z,99910.42
2023-04-02T08:41:51.693Z,99913.56
2023-04-02T08:44:36.909Z,99913.26
2023-04-02T08:47:11.055Z,99918.12
2023-04-02T08:49:53.840Z,99917.21
2023-04-02T08:52:34.273Z,99917.33
2023-04-02T08:55:05.058Z,99922.02
2023-04-02T08:57:42.073Z,99923.83
2023-04-02T09:00:22.453Z,99926.59
2023-04-02T09:03:09.156Z,99929.32
2023-04-02T09:05:42.704Z,99939.34
2023-04-02T09:08:21.439Z,99937.82
2023-04-02T09:10:59.025Z,99941.47
2023-04-02T09:13:29.711Z,99947.67
2023-04-02T09:16:03.097Z,99948.80
2023-04-02T09:18:32.980Z,99951.14
2023-04-02T09:21:19.273Z,99952.28
2023-04-02T09:23:48.167Z,99957.42
2023-04-02T09:26:31.349Z,99953.91
2023-04-02T09:29:33.370Z,99955.70
2023-04-02T09:32:28.353Z,99955.95
2023-04-02T09:35:18.497Z,99956.30
2023-04-02T09:38:30.933Z,99961.07
2023-04-02T09:41:18.728Z,99965.10
2023-04-02T09:43:47.095Z,99964.30
2023-04-02T09:46:23.067Z,99970.80
2023-04-02T09:49:01.349Z,99973.30
2023-04-02T09:51:35.201Z,99979.77
2023-04-02T09:54:10.186Z,99982.67
2023-04-02T09:56:40.324Z,99987.15
2023-04-02T09:59:22.016Z,99994.48
2023-04-02T10:01:53.718Z,100001.08
2023-04-02T10:04:44.810Z,100010.64
2023-04-02T10:07:44.997Z,100019.42
2023-04-02T10:10:16.912Z,100023.95
2023-04-02T10:13:03.006Z,100026.71
2023-04-02T10:15:42.625Z,100029.58
2023-04-02T10:18:42.511Z,100028.23
2023-04-02T10:21:15.762Z,100028.13
2023-04-02T10:23:44.485Z,100028.02
2023-04-02T10:26:58.159Z,100028.26
2023-04-02T10:29:52.260Z,100033.70
2023-04-02T10:32:23.997Z,100040.16
2023-04-02T10:34:57.258Z,100038.23
2023-04-02T10:37:44.152Z,100042.80
2023-04-02T10:40:29.818Z,100043.38
2023-04-02T10:43:34.031Z,100046.55
2023-04-02T10:46:14.850Z,100051.31
2023-04-02T10:49:00.159Z,100056.32
2023-04-02T10:51:38.962Z,100059.08
2023-04-02T10:54:48.295Z,100059.52
2023-04-02T10:57:48.717Z,100065.36
2023-04-02T11:00:28.046Z,100069.23
2023-04-02T11:03:13.560Z,100070.77
2023-04-02T11:06:12.431Z,100072.02
2023-04-02T11:08:49.283Z,100079.98
2023-04-02T11:11:24.877Z,100084.78
2023-04-02T11:14:01.044Z,100090.19
2023-04-02T11:16:30.198Z,100094.55
2023-04-02T11:19:38.073Z,100098.00
2023-04-02T11:22:22.127Z,100097.42
2023-04-02T11:24:53.399Z,100101.66
2023-04-02T11:27:29.738Z,100107.73
2023-04-02T11:30:18.287Z,100108.41
2023-04-02T11:32:49.786Z,100110.84
2023-04-02T11:35:33.399Z,100115.50
2023-04-02T11:38:23.636Z,100120.88
2023-04-02T11:40:59.123Z,100116.74
2023-04-02T11:43:33.672Z,100121.02
2023-04-02T11:46:18.905Z,100123.22
2023-04-02T11:48:47.621Z,100127.88
2023-04-02T11:51:36.346Z,100128.22
2023-04-02T11:54:05.828Z,100134.80
2023-04-02T11:56:50.619Z,100130.65
2023-04-02T11:59:46.338Z,100134.34
2023-04-02T12:02:30.895Z,100138.27
2023-04-02T12:05:14.800Z,100141.11
2023-04-02T12:08:06.460Z,100142.10
2023-04-02T12:10:55.566Z,100142.73
2023-04-02T12:13:42.352Z,100143.17
2023-04-02T12:16:14.778Z,100146.07
2023-04-02T12:18:53.992Z,100149.30
2023-04-02T12:21:28.681Z,100151.18
2023-04-02T12:24:01.145Z,100156.81
2023-04-02T12:26:42.436Z,100157.66
2023-04-02T12:29:25.066Z,100159.56
2023-04-02T12:31:58.690Z,100160.29
2023-04-02T12:34:30.717Z,100162.05
2023-04-02T12:37:05.630Z,100161.46
2023-04-02T12:39:35.141Z,100168.38
2023-04-02T12:42:03.568Z,100169.39
2023-04-02T12:44:32.834Z,100173.11
2023-04-02T12:47:01.693Z,100176.61
2023-04-02T12:49:42.211Z,100181.98
2023-04-02T12:52:16.930Z,100183.39
2023-04-02T12:54:49.972Z,100187.44
2023-04-02T12:57:27.044Z,100186.36
2023-04-02T13:00:16.792Z,100185.81
2023-04-02T13:02:48.369Z,100184.42
2023-04-02T13:05:35.560Z,100191.16
2023-04-02T13:08:05.847Z,100194.41
2023-04-02T13:10:35.435Z,100196.91
2023-04-02T13:13:04.331Z,100200.04
2023-04-02T13:15:36.823Z,100203.20
2023-04-02T13:18:13.297Z,100205.92
2023-04-02T13:21:05.696Z,100209.40
2023-04-02T13:23:38.012Z,100210.98
2023-04-02T13:26:09.368Z,100205.16
2023-04-02T13:28:38.925Z,100209.39
2023-04-02T13:31:18.248Z,100213.97
2023-04-02T13:33:46.401Z,100212.71
2023-04-02T13:36:15.310Z,100219.03
2023-04-02T13:38:53.796Z,100221.88
2023-04-02T13:41:32.072Z,100224.52
2023-04-02T13:44:03.076Z,100224.16
2023-04-02T13:46:34.404Z,100229.70
2023-04-02T13:49:03.049Z,100231.66
2023-04-02T13:51:45.444Z,100232.20
2023-04-02T13:54:31.681Z,100233.11
2023-04-02T13:57:00.219Z,100235.58
2023-04-02T13:59:30.477Z,100239.79
2023-04-02T14:02:08.196Z,100243.52
2023-04-02T14:04:49.322Z,100247.91
2023-04-02T14:07:35.193Z,100249.61
2023-04-02T14:10:31.218Z,100248.34
2023-04-02T14:14:00.589Z,100251.26
2023-04-02T14:17:13.949Z,100254.27
2023-04-02T14:20:22.761Z,100259.41
2023-04-02T14:23:13.159Z,100256.83
2023-04-02T14:26:02.288Z,100264.95
2023-04-02T14:29:05.701Z,100267.55
2023-04-02T14:32:51.774Z,100271.36
2023-04-02T14:36:12.252Z,100281.42
2023-04-02T14:39:21.963Z,100279.83
2023-04-02T14:42:12.766Z,100282.61
2023-04-02T14:45:01.568Z,100283.62
2023-04-02T14:47:39.330Z,100282.03
2023-04-02T14:50:22.704Z,100280.23
2023-04-02T14:52:58.585Z,100283.64
2023-04-02T14:55:47.367Z,100279.55
2023-04-02T14:58:33.827Z,100282.40
2023-04-02T15:01:21.079Z,100285.95
2023-04-02T15:04:36.445Z,100282.23
2023-04-02T15:07:41.792Z,100284.61
2023-04-02T15:10:48.349Z,100286.20
2023-04-02T15:13:23.623Z,100288.30
2023-04-02T15:16:06.734Z,100288.33
2023-04-02T15:19:05.108Z,100289.64
2023-04-02T15:22:28.562Z,100295.15
2023-04-02T15:25:21.098Z,100293.79
2023-04-02T15:28:02.590Z,100295.95
2023-04-02T15:30:38.315Z,100295.98
2023-04-02T15:33:52.376Z,100298.15
2023-04-02T15:36:28.571Z,100302.38
2023-04-02T15:39:25.003Z,100304.73
2023-04-02T15:42:09.272Z,100306.73
2023-04-02T15:44:47.808Z,100313.84
2023-04-02T15:47:34.480Z,100315.58
2023-04-02T15:50:24.329Z,100317.02
2023-04-02T15:53:25.005Z,100317.23
2023-04-02T15:56:24.478Z,100319.91
2023-04-02T15:59:16.645Z,100321.33
2023-04-02T16:02:14.539Z,100325.66
2023-04-02T16:04:54.300Z,100325.34
2023-04-02T16:07:37.073Z,100326.48
2023-04-02T16:10:30.279Z,100327.23
2023-04-02T16:13:31.299Z,100331.44
2023-04-02T16:16:12.957Z,100334.77
2023-04-02T16:18:53.768Z,100339.15
2023-04-02T16:21:27.432Z,100335.14
2023-04-02T16:23:55.718Z,100345.64
2023-04-02T16:26:27.271Z,100343.60
2023-04-02T16:29:38.012Z,100348.33
2023-04-02T16:32:33.022Z,100350.59
2023-04-02T16:35:27.229Z,100359.30
2023-04-02T16:38:44.257Z,100369.44
2023-04-02T16:41:34.608Z,100364.94
2023-04-02T16:44:26.717Z,100370.85
2023-04-02T16:47:01.307Z,100371.78
2023-04-02T16:49:43.706Z,100373.40
2023-04-02T16:52:36.325Z,100375.17
2023-04-02T16:55:41.437Z,100379.38
2023-04-02T16:58:18.670Z,100377.19
2023-04-02T17:01:05.202Z,100381.10
2023-04-02T17:03:54.897Z,100380.64
2023-04-02T17:06:43.568Z,100382.42
2023-04-02T17:09:21.853Z,100384.05
2023-04-02T17:11:56.412Z,100392.11
2023-04-02T17:14:53.289Z,100387.77
2023-04-02T17:17:23.288Z,100389.69
2023-04-02T17:19:59.012Z,100389.16
2023-04-02T17:22:31.437Z,100395.79
2023-04-02T17:25:07.301Z,100402.27
2023-04-02T17:27:43.828Z,100400.22
2023-04-02T17:30:39.922Z,100407.20
2023-04-02T17:33:13.622Z,100406.73
2023-04-02T17:36:08.779Z,100410.41
2023-04-02T17:39:02.279Z,100410.27
2023-04-02T17:41:36.921Z,100417.27
2023-04-02T17:44:31.113Z,100418.70
2023-04-02T17:47:17.638Z,100422.02
2023-04-02T17:50:20.063Z,100422.73
2023-04-02T17:53:01.730Z,100424.30
2023-04-02T17:55:41.117Z,100426.05
2023-04-02T17:58:28.510Z,100427.95
2023-04-02T18:01:23.625Z,100436.00
2023-04-02T18:04:12.740Z,100442.30
2023-04-02T18:07:00.695Z,100444.09
2023-04-02T18:09:45.709Z,100451.63
2023-04-02T18:12:58.289Z,100453.42
2023-04-02T18:15:46.428Z,100460.23
2023-04-02T18:18:42.811Z,100465.69
2023-04-02T18:21:35.993Z,100469.56
2023-04-02T18:24:29.577Z,100473.41
2023-04-02T18:27:26.597Z,100477.43
2023-04-02T18:30:09.458Z,100482.66
2023-04-02T18:32:53.800Z,100486.44
2023-04-02T18:36:05.552Z,100492.87
2023-04-02T18:38:56.832Z,100499.52
2023-04-02T18:42:08.365Z,100503.23
2023-04-02T18:45:20.339Z,100512.17
2023-04-02T18:48:59.949Z,100516.40
2023-04-02T18:51:49.490Z,100520.77
2023-04-02T18:54:49.501Z,100527.23
2023-04-02T18:57:31.127Z,100533.32
2023-04-02T19:00:05.981Z,100539.79
2023-04-02T19:02:46.495Z,100540.88
2023-04-02T19:05:28.994Z,100547.70
2023-04-02T19:08:27.863Z,100550.67
2023-04-02T19:11:04.836Z,100558.48
2023-04-02T19:13:33.741Z,100564.34
2023-04-02T19:16:17.529Z,100568.86
2023-04-02T19:19:20.353Z,100577.00
2023-04-02T19:21:51.790Z,100585.48
2023-04-02T19:24:29.694Z,100588.77
2023-04-02T19:27:26.047Z,100592.93
2023-04-02T19:30:16.960Z,100592.55
2023-04-02T19:33:30.714Z,100596.36
2023-04-02T19:36:16.182Z,100601.06
2023-04-02T19:39:19.937Z,100610.82
2023-04-02T19:41:54.120Z,100614.69
2023-04-02T19:44:25.210Z,100620.98
2023-04-02T19:46:53.904Z,100622.93
2023-04-02T19:49:40.010Z,100631.33
2023-04-02T19:52:09.330Z,100639.36
2023-04-02T19:54:40.921Z,100643.75
2023-04-02T19:57:16.021Z,100644.85
2023-04-02T19:59:44.905Z,100649.94
2023-04-02T20:02:14.165Z,100651.07
2023-04-02T20:04:42.936Z,100656.83
2023-04-02T20:07:11.759Z,100665.38
2023-04-02T20:09:43.109Z,100669.23
2023-04-02T20:12:11.853Z,100677.92
2023-04-02T20:14:40.490Z,100674.30
2023-04-02T20:17:09.116Z,100690.43
2023-04-02T20:19:37.693Z,100696.16
2023-04-02T20:22:06.552Z,100698.08
2023-04-02T20:24:35.603Z,100697.39
2023-04-02T20:27:04.322Z,100703.46
2023-04-02T20:29:35.926Z,100713.51
2023-04-02T20:32:07.571Z,100720.79
2023-04-02T20:34:37.049Z,100724.08
2023-04-02T20:37:05.586Z,100728.74
2023-04-02T20:39:34.068Z,100734.11
2023-04-02T20:42:03.743Z,100741.20
2023-04-02T20:44:32.118Z,100743.80
2023-04-02T20:47:00.570Z,100747.75
2023-04-02T20:49:29.137Z,100749.30
2023-04-02T20:52:00.260Z,100750.32
2023-04-02T20:54:29.003Z,100750.83
2023-04-02T20:56:57.559Z,100757.75
2023-04-02T20:59:26.545Z,100761.40
2023-04-02T21:01:55.064Z,100762.06
2023-04-02T21:04:26.809Z,100764.46
2023-04-02T21:06:57.220Z,100771.19
2023-04-02T21:09:25.630Z,100771.66
2023-04-02T21:11:54.017Z,100773.71
2023-04-02T21:14:23.131Z,100776.27
2023-04-02T21:16:51.982Z,100781.27
2023-04-02T21:19:20.542Z,100786.09
2023-04-02T21:21:49.044Z,100786.89
2023-04-02T21:24:17.421Z,100792.20
2023-04-02T21:26:46.680Z,100795.27
2023-04-02T21:29:15.138Z,100795.59
2023-04-02T21:31:44.284Z,100800.06
2023-04-02T21:34:17.308Z,100804.55
2023-04-02T21:36:49.093Z,100805.56
2023-04-02T21:39:21.408Z,100811.39
2023-04-02T21:41:52.079Z,100808.77
2023-04-02T21:44:22.573Z,100809.96
2023-04-02T21:46:53.900Z,100813.18
2023-04-02T21:49:23.228Z,100814.36
2023-04-02T21:51:52.599Z,100817.27
2023-04-02T21:54:21.473Z,100817.55
2023-04-02T21:56:50.324Z,100820.61
2023-04-02T21:59:19.215Z,100820.77
2023-04-02T22:01:56.430Z,100822.98
2023-04-02T22:04:25.980Z,100824.87
2023-04-02T22:06:54.744Z,100824.34
2023-04-02T22:09:26.921Z,100826.40
2023-04-02T22:12:02.203Z,100830.34
2023-04-02T22:14:30.992Z,100832.39
2023-04-02T22:17:08.926Z,100839.09
2023-04-02T22:19:38.378Z,100834.66
2023-04-02T22:22:07.101Z,100840.31
2023-04-02T22:24:35.613Z,100840.79
2023-04-02T22:27:04.311Z,100843.30
2023-04-02T22:29:32.632Z,100850.48
2023-04-02T22:32:04.195Z,100851.97
2023-04-02T22:34:32.893Z,100854.86
2023-04-02T22:37:02.708Z,100856.42
2023-04-02T22:39:31.228Z,100854.50
2023-04-02T22:41:59.480Z,100854.30
2023-04-02T22:44:28.518Z,100857.34
2023-04-02T22:47:06.697Z,100861.42
2023-04-02T22:49:35.037Z,100867.79
2023-04-02T22:52:06.134Z,100871.91
2023-04-02T22:54:34.548Z,100873.23
2023-04-02T22:57:02.687Z,100872.55
2023-04-02T22:59:30.994Z,100877.15
2023-04-02T23:01:59.336Z,100880.88
2023-04-02T23:04:28.016Z,100881.52
2023-04-02T23:06:56.788Z,100884.69
2023-04-02T23:09:25.114Z,100886.42
2023-04-02T23:11:53.494Z,100889.69
2023-04-02T23:14:21.918Z,100891.20
2023-04-02T23:16:50.537Z,100888.60
2023-04-02T23:19:19.127Z,100888.90
2023-04-02T23:21:47.793Z,100895.77
2023-04-02T23:24:18.903Z,100896.22
2023-04-02T23:26:48.861Z,100899.82
2023-04-02T23:29:17.291Z,100897.39
2023-04-02T23:31:49.054Z,100900.73
2023-04-02T23:34:17.287Z,100898.73
2023-04-02T23:36:45.562Z,100898.00
2023-04-02T23:39:14.427Z,100897.77
2023-04-02T23:41:43.539Z,100897.38
2023-04-02T23:44:12.219Z,100895.23
2023-04-02T23:46:40.391Z,100894.48
2023-04-02T23:49:12.864Z,100895.48
2023-04-02T23:51:41.658Z,100897.01
2023-04-02T23:54:12.023Z,100901.65
2023-04-02T23:56:41.336Z,100903.33
2023-04-02T23:59:10.107Z,100902.60
